Time;durP1;ratioP1;P1;durP2;ratioP2;P2;SDS_P1;SDS_P2;PMS_P1;PMS_P2;Temp;Humidity;BMP_temperature;BMP_pressure;BME280_temperature;BME280_humidity;BME280_pressure;Samples;Min_cycle;Max_cycle;Signal;HPM_P1;HPM_P2
2023/11/19 00:01:24;;;;;;;1.50;1.40;;;19.70;64.20;;;;;;5082708;28;20090;-36
2023/11/19 00:03:50;;;;;;;1.77;1.55;;;19.70;64.10;;;;;;5081695;28;20032;-35
2023/11/19 00:06:16;;;;;;;2.40;1.50;;;19.70;64.10;;;;;;5082770;28;20040;-36
2023/11/19 00:08:45;;;;;;;1.60;1.47;;;19.70;64.10;;;;;;5076496;28;20041;-35
2023/11/19 00:11:15;;;;;;;1.52;1.42;;;19.70;64.10;;;;;;5082274;28;20393;-36
2023/11/19 00:13:41;;;;;;;1.42;1.33;;;19.60;64.10;;;;;;5080704;28;20040;-35
2023/11/19 00:16:09;;;;;;;1.45;1.35;;;19.60;64.10;;;;;;5082921;28;20039;-35
2023/11/19 00:18:39;;;;;;;1.55;1.45;;;19.60;64.00;;;;;;5080514;28;20055;-35
2023/11/19 00:21:07;;;;;;;1.73;1.30;;;19.60;64.00;;;;;;5076517;28;20485;-35
2023/11/19 00:23:33;;;;;;;1.50;1.40;;;19.60;64.10;;;;;;5081285;28;20036;-36
2023/11/19 00:26:00;;;;;;;1.73;1.60;;;19.60;64.10;;;;;;5082757;28;20127;-36
2023/11/19 00:28:26;;;;;;;2.30;1.60;;;19.60;64.10;;;;;;5082091;28;20036;-35
2023/11/19 00:30:52;;;;;;;1.73;1.63;;;19.50;64.00;;;;;;5081417;28;20046;-35
2023/11/19 00:33:19;;;;;;;1.67;1.55;;;19.50;64.00;;;;;;5082437;28;20028;-34
2023/11/19 00:35:45;;;;;;;2.05;1.42;;;19.50;64.00;;;;;;5081984;28;20425;-35
2023/11/19 00:38:11;;;;;;;1.70;1.58;;;19.50;64.00;;;;;;5076557;28;20048;-35
2023/11/19 00:40:37;;;;;;;1.65;1.55;;;19.50;64.00;;;;;;5082272;28;20448;-36
2023/11/19 00:43:03;;;;;;;1.52;1.42;;;19.50;64.00;;;;;;5081910;28;20049;-36
2023/11/19 00:45:29;;;;;;;1.60;1.50;;;19.50;64.00;;;;;;5086296;28;20032;-36
2023/11/19 00:47:55;;;;;;;2.13;1.58;;;19.50;64.00;;;;;;5081876;28;20029;-35
2023/11/19 00:50:22;;;;;;;1.73;1.63;;;19.40;64.00;;;;;;5081883;28;20044;-36
2023/11/19 00:52:48;;;;;;;1.60;1.48;;;19.40;64.00;;;;;;5082253;28;20033;-36
2023/11/19 00:55:14;;;;;;;1.92;1.80;;;19.40;64.10;;;;;;5082253;28;20044;-36
2023/11/19 00:57:41;;;;;;;2.05;1.85;;;19.40;64.10;;;;;;5082142;28;20028;-35
2023/11/19 01:00:29;;;;;;;2.10;1.88;;;19.40;64.10;;;;;;5082493;28;20432;-35
2023/11/19 01:02:54;;;;;;;1.85;1.40;;;19.30;64.10;;;;;;5082079;28;20064;-35
2023/11/19 01:05:22;;;;;;;2.03;1.75;;;19.30;64.00;;;;;;5082236;28;20606;-36
2023/11/19 01:07:48;;;;;;;1.90;1.70;;;19.30;64.00;;;;;;5081514;28;20028;-36
2023/11/19 01:10:15;;;;;;;1.63;1.52;;;19.30;64.00;;;;;;5077481;28;20043;-35
2023/11/19 01:12:42;;;;;;;;;;;19.30;64.10;;;;;;5082184;28;20033;-36
2023/11/19 01:15:08;;;;;;;1.70;1.60;;;19.30;64.10;;;;;;5086695;28;19908;-35
2023/11/19 01:17:35;;;;;;;2.23;1.70;;;19.30;64.20;;;;;;5081571;28;20028;-35
2023/11/19 01:20:01;;;;;;;1.95;1.75;;;19.20;64.10;;;;;;5080147;28;20029;-36
2023/11/19 01:22:27;;;;;;;2.08;1.90;;;19.20;64.10;;;;;;5082505;28;20033;-35
2023/11/19 01:24:54;;;;;;;1.90;1.80;;;19.20;64.20;;;;;;5081679;28;20016;-35
2023/11/19 01:27:20;;;;;;;2.38;1.80;;;19.20;64.20;;;;;;5082439;28;20028;-35
2023/11/19 01:29:46;;;;;;;2.42;1.77;;;19.20;64.20;;;;;;5073112;28;20044;-34
2023/11/19 01:32:12;;;;;;;2.72;1.98;;;19.20;64.30;;;;;;5084836;28;20047;-35
2023/11/19 01:34:38;;;;;;;2.13;1.70;;;19.10;64.20;;;;;;5079552;28;20032;-35
2023/11/19 01:37:04;;;;;;;1.85;1.65;;;19.10;64.20;;;;;;5078840;28;20170;-35
2023/11/19 01:39:30;;;;;;;2.72;1.80;;;19.10;64.20;;;;;;5078427;28;20043;-36
2023/11/19 01:41:57;;;;;;;1.80;1.70;;;19.10;64.30;;;;;;5081686;28;20016;-34
2023/11/19 01:44:23;;;;;;;2.55;1.60;;;19.10;64.30;;;;;;5083432;28;20408;-34
2023/11/19 01:46:49;;;;;;;2.13;1.92;;;19.10;64.40;;;;;;5080150;28;20064;-35
2023/11/19 01:49:16;;;;;;;1.95;1.80;;;19.00;64.30;;;;;;5080268;28;20036;-35
2023/11/19 01:51:42;;;;;;;2.10;1.90;;;19.00;64.40;;;;;;5072443;28;20041;-35
2023/11/19 01:54:08;;;;;;;2.20;2.00;;;19.00;64.40;;;;;;5081886;28;20037;-36
2023/11/19 01:56:35;;;;;;;2.00;1.77;;;19.00;64.40;;;;;;5083966;28;20029;-36
2023/11/19 01:59:01;;;;;;;1.88;1.75;;;18.90;64.40;;;;;;5078246;28;20091;-35
2023/11/19 02:01:29;;;;;;;3.37;2.27;;;19.00;64.40;;;;;;5085017;28;20046;-35
2023/11/19 02:03:55;;;;;;;2.10;1.85;;;19.00;64.50;;;;;;5084058;28;20037;-35
2023/11/19 02:06:22;;;;;;;2.92;2.05;;;18.90;64.40;;;;;;5084739;28;20029;-36
2023/11/19 02:08:48;;;;;;;2.08;1.90;;;18.90;64.50;;;;;;5081951;28;20044;-35
2023/11/19 02:11:14;;;;;;;2.20;2.00;;;18.90;64.50;;;;;;5085243;28;20404;-36
2023/11/19 02:13:41;;;;;;;2.45;2.10;;;18.90;64.50;;;;;;5083063;28;20036;-35
2023/11/19 02:16:09;;;;;;;1.88;1.77;;;18.90;64.50;;;;;;5079862;28;20388;-35
2023/11/19 02:18:35;;;;;;;2.17;2.00;;;18.80;64.60;;;;;;5082027;28;20044;-35
2023/11/19 02:21:01;;;;;;;3.30;2.40;;;18.80;64.60;;;;;;5077818;28;20024;-35
2023/11/19 02:23:28;;;;;;;2.75;2.28;;;18.80;64.60;;;;;;5084979;28;20025;-36
2023/11/19 02:26:15;;;;;;;2.58;2.17;;;18.80;64.70;;;;;;5084732;28;20028;-35
2023/11/19 02:28:42;;;;;;;3.03;2.00;;;18.80;64.70;;;;;;5084134;28;20051;-34
2023/11/19 02:31:09;;;;;;;3.60;2.30;;;18.80;64.70;;;;;;5071937;28;20099;-35
2023/11/19 02:33:38;;;;;;;2.63;2.25;;;18.80;65.00;;;;;;5082441;28;20542;-36
2023/11/19 02:36:08;;;;;;;3.03;2.30;;;18.70;64.60;;;;;;5084057;28;20041;-36
2023/11/19 02:38:35;;;;;;;2.80;1.92;;;18.70;64.60;;;;;;5078145;28;20039;-35
2023/11/19 02:41:07;;;;;;;2.42;2.00;;;18.70;64.90;;;;;;5081514;28;20017;-36
2023/11/19 02:43:38;;;;;;;2.70;2.00;;;18.80;65.20;;;;;;5082122;28;20056;-35
2023/11/19 02:46:08;;;;;;;2.20;1.80;;;18.90;65.40;;;;;;5113543;27;20117;-36
2023/11/19 02:48:37;;;;;;;2.10;1.90;;;19.10;65.50;;;;;;5082878;28;20024;-36
2023/11/19 02:51:04;;;;;;;2.22;1.70;;;19.20;65.80;;;;;;5080002;28;20047;-36
2023/11/19 02:53:31;;;;;;;2.03;1.70;;;19.30;65.90;;;;;;5083969;28;20032;-35
2023/11/19 02:56:06;;;;;;;2.10;1.90;;;19.30;65.90;;;;;;5083813;28;20781;-34
2023/11/19 02:58:32;;;;;;;1.60;1.45;;;19.50;66.10;;;;;;5081110;28;20039;-35
2023/11/19 03:01:00;;;;;;;1.57;1.47;;;19.50;66.20;;;;;;5083810;28;20047;-35
2023/11/19 03:03:38;;;;;;;1.77;1.60;;;19.60;66.50;;;;;;5085690;28;20027;-35
2023/11/19 03:06:08;;;;;;;1.50;1.38;;;19.70;66.60;;;;;;5081856;28;20092;-35
2023/11/19 03:08:36;;;;;;;1.70;1.30;;;19.80;66.60;;;;;;5082980;28;20140;-35
2023/11/19 03:11:02;;;;;;;1.40;1.30;;;19.90;66.70;;;;;;5086970;28;20123;-35
2023/11/19 03:13:28;;;;;;;1.23;1.13;;;19.90;67.50;;;;;;5080012;28;20066;-35
2023/11/19 03:15:54;;;;;;;1.23;1.10;;;20.00;66.90;;;;;;5083099;28;20028;-36
2023/11/19 03:18:21;;;;;;;1.15;1.05;;;20.10;67.00;;;;;;5082141;28;20027;-35
2023/11/19 03:20:47;;;;;;;1.07;1.00;;;20.20;66.90;;;;;;5084368;28;20031;-35
2023/11/19 03:23:13;;;;;;;1.30;1.10;;;20.20;66.80;;;;;;5081075;28;20273;-35
2023/11/19 03:25:39;;;;;;;1.70;1.30;;;20.30;66.90;;;;;;5080553;28;20028;-35
2023/11/19 03:28:06;;;;;;;1.50;0.93;;;20.40;67.00;;;;;;5082044;28;20277;-36
2023/11/19 03:30:32;;;;;;;1.00;0.95;;;20.50;67.10;;;;;;5082539;28;20032;-36
2023/11/19 03:32:59;;;;;;;1.17;1.03;;;20.50;66.90;;;;;;5083030;28;20095;-36
2023/11/19 03:35:25;;;;;;;1.63;1.00;;;20.70;66.80;;;;;;5082443;28;20036;-36
2023/11/19 03:37:52;;;;;;;1.00;0.90;;;20.70;66.90;;;;;;5082695;28;20920;-35
2023/11/19 03:40:18;;;;;;;0.82;0.82;;;20.80;66.80;;;;;;5080253;28;20024;-35
2023/11/19 03:42:48;;;;;;;1.10;0.93;;;20.90;66.70;;;;;;5080752;28;20049;-35
2023/11/19 03:45:15;;;;;;;0.73;0.70;;;20.90;66.70;;;;;;5075395;28;20040;-35
2023/11/19 03:47:41;;;;;;;1.13;0.98;;;21.00;66.70;;;;;;5072312;28;20469;-35
2023/11/19 03:50:08;;;;;;;0.80;0.80;;;21.10;66.40;;;;;;5072429;28;20052;-34
2023/11/19 03:52:35;;;;;;;0.65;0.65;;;21.20;66.20;;;;;;5072960;28;20017;-35
2023/11/19 03:55:03;;;;;;;0.80;0.80;;;21.30;66.50;;;;;;5073410;28;20040;-35
2023/11/19 03:57:29;;;;;;;1.20;0.88;;;21.30;66.10;;;;;;5072630;28;20032;-35
2023/11/19 03:59:55;;;;;;;1.10;0.90;;;21.20;65.40;;;;;;5072520;28;20036;-34
2023/11/19 04:02:21;;;;;;;1.00;0.65;;;21.20;65.20;;;;;;5072412;28;20782;-35
2023/11/19 04:04:48;;;;;;;1.00;0.90;;;21.10;65.10;;;;;;5071217;28;20028;-35
2023/11/19 04:07:15;;;;;;;1.35;1.10;;;21.10;65.00;;;;;;5072704;28;20408;-35
2023/11/19 04:09:41;;;;;;;1.35;0.98;;;21.10;64.90;;;;;;5074156;28;20044;-35
2023/11/19 04:12:08;;;;;;;1.00;0.90;;;21.10;64.80;;;;;;5073205;28;20024;-35
2023/11/19 04:14:34;;;;;;;1.10;1.00;;;21.00;64.60;;;;;;5073954;28;20048;-35
2023/11/19 04:17:00;;;;;;;2.97;1.17;;;21.00;64.60;;;;;;5079594;28;20043;-35
2023/11/19 04:19:26;;;;;;;1.10;0.98;;;21.00;64.50;;;;;;5081809;28;21176;-35
2023/11/19 04:21:52;;;;;;;1.23;1.13;;;20.90;64.30;;;;;;5078760;28;20024;-35
2023/11/19 04:24:18;;;;;;;1.42;1.10;;;20.90;64.40;;;;;;5082817;28;20480;-35
2023/11/19 04:26:46;;;;;;;1.23;1.13;;;20.90;64.20;;;;;;5082059;28;20063;-35
2023/11/19 04:29:13;;;;;;;1.48;1.38;;;20.80;64.10;;;;;;5080777;28;20060;-35
2023/11/19 04:31:39;;;;;;;1.20;1.10;;;20.80;63.90;;;;;;5079134;28;20097;-34
2023/11/19 04:34:08;;;;;;;1.73;1.30;;;20.90;64.10;;;;;;5082758;28;20036;-35
2023/11/19 04:36:35;;;;;;;1.63;1.30;;;20.90;64.10;;;;;;5084706;28;20084;-35
2023/11/19 04:39:01;;;;;;;1.20;1.10;;;21.00;64.10;;;;;;5080348;28;20020;-35
2023/11/19 04:41:27;;;;;;;1.40;1.30;;;20.90;63.90;;;;;;5080630;28;20020;-35
2023/11/19 04:43:54;;;;;;;1.37;1.20;;;20.90;64.00;;;;;;5082091;28;20067;-35
2023/11/19 04:46:20;;;;;;;1.42;1.33;;;20.80;63.90;;;;;;5079001;28;20029;-35
2023/11/19 04:48:46;;;;;;;1.80;1.35;;;20.80;63.90;;;;;;5080128;28;20764;-35
2023/11/19 04:51:12;;;;;;;1.40;1.30;;;20.70;64.00;;;;;;5084350;28;20036;-35
2023/11/19 04:53:38;;;;;;;1.25;1.15;;;20.80;64.10;;;;;;5079425;28;20028;-35
2023/11/19 04:56:09;;;;;;;1.55;1.45;;;20.90;64.20;;;;;;5079137;28;20100;-35
2023/11/19 04:58:35;;;;;;;1.50;1.40;;;20.90;64.10;;;;;;5079299;28;20056;-35
2023/11/19 05:01:03;;;;;;;2.35;1.38;;;20.80;63.90;;;;;;5081568;28;20028;-34
2023/11/19 05:03:29;;;;;;;;;;;20.80;63.80;;;;;;5081826;28;20055;-35
2023/11/19 05:05:55;;;;;;;1.40;1.30;;;20.80;63.90;;;;;;5082853;28;20431;-35
2023/11/19 05:08:21;;;;;;;1.30;1.20;;;20.70;64.00;;;;;;5080013;28;20049;-34
2023/11/19 05:10:47;;;;;;;1.50;1.40;;;20.70;64.00;;;;;;5082054;28;20054;-35
2023/11/19 05:13:14;;;;;;;1.73;1.42;;;20.80;64.20;;;;;;5080893;28;20480;-36
2023/11/19 05:15:40;;;;;;;4.15;1.50;;;20.80;63.90;;;;;;5081783;28;20074;-35
2023/11/19 05:18:06;;;;;;;1.35;1.25;;;20.80;63.90;;;;;;5080990;28;20029;-35
2023/11/19 05:20:32;;;;;;;1.45;1.35;;;20.80;63.90;;;;;;5081676;28;20063;-35
2023/11/19 05:23:00;;;;;;;1.77;1.50;;;20.70;63.90;;;;;;5081899;28;20028;-35
2023/11/19 05:25:27;;;;;;;1.73;1.50;;;20.60;63.80;;;;;;5081475;28;20040;-35
2023/11/19 05:27:53;;;;;;;1.63;1.20;;;20.60;63.80;;;;;;5080927;28;20032;-35
2023/11/19 05:30:19;;;;;;;1.45;1.25;;;20.70;64.00;;;;;;5084868;28;20363;-35
2023/11/19 05:32:45;;;;;;;1.63;1.52;;;20.80;63.90;;;;;;5083275;28;20036;-35
2023/11/19 05:35:12;;;;;;;1.30;1.20;;;20.80;64.00;;;;;;5091400;28;20142;-35
2023/11/19 05:37:38;;;;;;;1.48;1.27;;;20.80;63.80;;;;;;5084067;28;20024;-35
2023/11/19 05:40:12;;;;;;;1.63;1.27;;;20.70;63.90;;;;;;5084383;28;20029;-35
2023/11/19 05:42:38;;;;;;;1.60;1.50;;;20.70;63.80;;;;;;5080906;28;20071;-35
2023/11/19 05:45:04;;;;;;;1.85;1.63;;;20.60;63.80;;;;;;5087210;28;20444;-35
2023/11/19 05:47:30;;;;;;;1.58;1.40;;;20.60;63.80;;;;;;5084986;28;20025;-35
2023/11/19 05:49:56;;;;;;;1.88;1.50;;;20.70;64.00;;;;;;5081042;28;20040;-35
2023/11/19 05:52:23;;;;;;;1.67;1.58;;;20.80;64.00;;;;;;5084821;28;20485;-35
2023/11/19 05:54:51;;;;;;;1.40;1.30;;;20.80;63.90;;;;;;5082567;28;20119;-35
2023/11/19 05:57:23;;;;;;;1.40;1.30;;;20.70;63.80;;;;;;5084998;28;20114;-35
2023/11/19 05:59:50;;;;;;;1.83;1.52;;;20.70;63.70;;;;;;5082471;28;20037;-34
2023/11/19 06:02:16;;;;;;;1.60;1.50;;;20.60;63.80;;;;;;5084855;28;20036;-35
2023/11/19 06:04:44;;;;;;;1.75;1.65;;;20.60;63.80;;;;;;5082658;28;20020;-34
2023/11/19 06:07:10;;;;;;;1.70;1.60;;;20.60;63.80;;;;;;5083497;28;20055;-34
2023/11/19 06:09:36;;;;;;;1.85;1.65;;;20.70;64.00;;;;;;5083575;28;20472;-35
2023/11/19 06:12:03;;;;;;;1.67;1.58;;;20.80;63.70;;;;;;5083137;28;20017;-35
2023/11/19 06:14:29;;;;;;;2.00;1.80;;;20.70;63.60;;;;;;5086350;28;20024;-34
2023/11/19 06:16:56;;;;;;;2.00;1.65;;;20.70;63.70;;;;;;5083735;28;20037;-35
2023/11/19 06:19:24;;;;;;;1.60;1.50;;;20.60;63.70;;;;;;5084951;28;20032;-35
2023/11/19 06:21:50;;;;;;;1.65;1.50;;;20.60;63.70;;;;;;5083206;28;20053;-35
2023/11/19 06:24:16;;;;;;;1.40;1.27;;;20.60;63.70;;;;;;5084687;28;20028;-35
2023/11/19 06:26:43;;;;;;;1.40;1.30;;;20.70;63.80;;;;;;5083862;28;20123;-35
2023/11/19 06:29:09;;;;;;;1.60;1.50;;;20.80;63.80;;;;;;5091967;28;20042;-35
2023/11/19 06:31:35;;;;;;;1.80;1.50;;;20.70;63.60;;;;;;5084204;28;20088;-35
2023/11/19 06:34:01;;;;;;;1.48;1.38;;;20.70;63.70;;;;;;5084271;28;20024;-35
2023/11/19 06:36:27;;;;;;;1.45;1.35;;;20.60;63.70;;;;;;5083693;28;20028;-35
2023/11/19 06:38:53;;;;;;;2.05;1.73;;;20.50;63.60;;;;;;5086514;28;20024;-35
2023/11/19 06:41:19;;;;;;;1.80;1.40;;;20.60;63.80;;;;;;5083738;28;20027;-35
2023/11/19 06:43:46;;;;;;;1.65;1.55;;;20.70;63.70;;;;;;5084188;28;20063;-34
2023/11/19 06:46:16;;;;;;;1.50;1.40;;;20.80;63.80;;;;;;5093318;28;20036;-34
2023/11/19 06:48:43;;;;;;;2.00;1.80;;;20.70;63.60;;;;;;5083010;28;20316;-34
2023/11/19 06:51:10;;;;;;;2.25;1.65;;;20.60;63.70;;;;;;5083426;28;20033;-34
2023/11/19 06:53:36;;;;;;;1.77;1.50;;;20.60;63.60;;;;;;5075941;28;20056;-34
2023/11/19 06:56:06;;;;;;;2.22;1.70;;;20.50;63.60;;;;;;5080178;28;20093;-35
2023/11/19 06:58:35;;;;;;;1.85;1.73;;;20.50;63.70;;;;;;5083583;28;20028;-34
2023/11/19 07:01:02;;;;;;;1.75;1.65;;;20.70;63.80;;;;;;5083321;28;20031;-35
2023/11/19 07:03:28;;;;;;;2.00;1.80;;;20.70;63.70;;;;;;5083386;28;20032;-35
2023/11/19 07:05:55;;;;;;;1.80;1.70;;;20.70;63.60;;;;;;5081785;28;20021;-35
2023/11/19 07:08:22;;;;;;;1.60;1.50;;;20.60;63.60;;;;;;5082688;28;20029;-34
2023/11/19 07:10:48;;;;;;;2.00;1.70;;;20.50;63.60;;;;;;5083601;28;20029;-35
2023/11/19 07:13:15;;;;;;;2.05;1.63;;;20.50;63.60;;;;;;5082461;28;20032;-34
2023/11/19 07:15:41;;;;;;;2.47;1.50;;;20.50;63.60;;;;;;5087270;28;20115;-35
2023/11/19 07:18:07;;;;;;;1.70;1.60;;;20.60;63.80;;;;;;5083215;28;20054;-34
2023/11/19 07:20:33;;;;;;;1.90;1.80;;;20.70;63.70;;;;;;5078524;28;20029;-36
2023/11/19 07:23:00;;;;;;;1.63;1.48;;;20.70;63.70;;;;;;5083517;28;20051;-34
2023/11/19 07:25:26;;;;;;;1.73;1.63;;;20.60;63.70;;;;;;5083397;28;20037;-35
2023/11/19 07:27:53;;;;;;;1.88;1.73;;;20.60;63.60;;;;;;5083342;28;20025;-34
2023/11/19 07:30:19;;;;;;;1.67;1.57;;;20.50;63.60;;;;;;5083590;28;20044;-34
2023/11/19 07:32:45;;;;;;;1.70;1.27;;;20.50;63.70;;;;;;5083014;28;21022;-34
2023/11/19 07:35:11;;;;;;;1.98;1.60;;;20.60;63.80;;;;;;5083407;28;20064;-34
2023/11/19 07:37:37;;;;;;;1.90;1.70;;;20.70;63.80;;;;;;5075318;28;20032;-34
2023/11/19 07:40:04;;;;;;;1.65;1.55;;;20.70;63.80;;;;;;5082950;28;20104;-34
2023/11/19 07:42:31;;;;;;;2.20;1.80;;;20.60;63.60;;;;;;5082522;28;20066;-35
2023/11/19 07:44:57;;;;;;;1.73;1.52;;;20.60;63.60;;;;;;5081416;28;20075;-34
2023/11/19 07:47:23;;;;;;;1.83;1.67;;;20.50;63.60;;;;;;5082810;28;20028;-35
2023/11/19 07:49:50;;;;;;;1.83;1.73;;;20.50;63.70;;;;;;5083262;28;20040;-35
2023/11/19 07:52:16;;;;;;;1.58;1.48;;;20.60;63.70;;;;;;5085522;28;20100;-34
2023/11/19 07:54:43;;;;;;;1.88;1.77;;;20.70;63.80;;;;;;5080522;28;20772;-34
2023/11/19 07:57:10;;;;;;;1.83;1.73;;;20.70;63.70;;;;;;5084100;28;20032;-34
2023/11/19 07:59:36;;;;;;;1.90;1.70;;;20.60;63.60;;;;;;5080779;28;20046;-35
2023/11/19 08:02:03;;;;;;;1.63;1.50;;;20.60;63.70;;;;;;5079440;28;20120;-35
2023/11/19 08:04:29;;;;;;;;;;;20.50;63.60;;;;;;5082237;28;20033;-35
2023/11/19 08:06:55;;;;;;;1.70;1.60;;;20.50;63.70;;;;;;5080411;28;20507;-35
2023/11/19 08:09:21;;;;;;;1.73;1.63;;;20.60;63.70;;;;;;5084545;28;20044;-34
2023/11/19 08:11:47;;;;;;;1.80;1.70;;;20.70;63.80;;;;;;5081269;28;20028;-35
2023/11/19 08:14:13;;;;;;;2.63;1.52;;;20.60;63.70;;;;;;5078167;28;20037;-35
2023/11/19 08:16:41;;;;;;;2.05;1.85;;;20.60;63.70;;;;;;5072281;28;20032;-34
2023/11/19 08:19:08;;;;;;;;;;;20.50;63.60;;;;;;5074706;28;20028;-35
2023/11/19 08:21:34;;;;;;;1.80;1.70;;;20.50;63.60;;;;;;5072887;28;19912;-34
2023/11/19 08:24:00;;;;;;;2.03;1.67;;;20.50;63.70;;;;;;5074712;28;20784;-35
2023/11/19 08:26:26;;;;;;;1.50;1.40;;;20.60;63.80;;;;;;5072337;28;20024;-34
2023/11/19 08:28:52;;;;;;;2.03;1.73;;;20.70;63.80;;;;;;5072454;28;20048;-35
2023/11/19 08:31:19;;;;;;;2.33;1.67;;;20.70;63.70;;;;;;5074726;28;20031;-35
2023/11/19 08:33:45;;;;;;;2.10;1.90;;;20.60;63.60;;;;;;5072373;28;20455;-35
2023/11/19 08:36:16;;;;;;;1.92;1.67;;;20.50;63.50;;;;;;5072641;28;20027;-35
2023/11/19 08:38:43;;;;;;;2.15;1.95;;;20.50;63.60;;;;;;5072943;28;22433;-35
2023/11/19 08:41:10;;;;;;;1.60;1.50;;;20.50;63.60;;;;;;5073625;28;20353;-35
2023/11/19 08:43:36;;;;;;;1.98;1.77;;;20.60;63.70;;;;;;5072801;28;20726;-35
2023/11/19 08:46:02;;;;;;;2.10;1.90;;;20.70;63.70;;;;;;5084461;28;20036;-35
2023/11/19 08:48:28;;;;;;;1.93;1.73;;;20.60;63.60;;;;;;5082996;28;20062;-35
2023/11/19 08:50:54;;;;;;;2.10;1.88;;;20.60;63.60;;;;;;5082012;28;20028;-34
2023/11/19 08:53:20;;;;;;;2.33;2.13;;;20.50;63.70;;;;;;5080688;28;20233;-34
2023/11/19 08:55:47;;;;;;;2.00;1.67;;;20.50;63.60;;;;;;5083751;28;20028;-34
2023/11/19 08:58:13;;;;;;;2.00;1.80;;;20.50;63.60;;;;;;5081143;28;20100;-34
2023/11/19 09:00:39;;;;;;;1.70;1.60;;;20.60;63.70;;;;;;5081073;28;20040;-34
2023/11/19 09:03:05;;;;;;;2.00;1.80;;;20.70;63.70;;;;;;5081722;28;20039;-35
2023/11/19 09:05:31;;;;;;;1.55;1.45;;;20.60;63.60;;;;;;5080163;28;20039;-35
2023/11/19 09:07:57;;;;;;;2.42;1.90;;;20.60;63.50;;;;;;5080050;28;20028;-34
2023/11/19 09:10:23;;;;;;;2.20;2.00;;;20.50;63.40;;;;;;5080972;28;20088;-34
2023/11/19 09:12:49;;;;;;;2.03;1.60;;;20.50;63.50;;;;;;5078710;28;20785;-35
2023/11/19 09:15:16;;;;;;;2.60;1.90;;;20.50;63.50;;;;;;5080386;28;20109;-35
2023/11/19 09:17:42;;;;;;;1.95;1.77;;;20.70;63.60;;;;;;5080698;28;20058;-35
2023/11/19 09:20:12;;;;;;;1.88;1.77;;;20.70;63.50;;;;;;5079287;28;20036;-34
2023/11/19 09:22:58;;;;;;;2.63;1.98;;;20.60;63.40;;;;;;5082837;28;20036;-34
2023/11/19 09:25:24;;;;;;;1.95;1.83;;;20.50;63.40;;;;;;5061532;28;20045;-34
2023/11/19 09:27:50;;;;;;;2.40;2.20;;;20.50;63.50;;;;;;5056971;28;20045;-35
2023/11/19 09:30:16;;;;;;;2.03;1.83;;;20.50;63.50;;;;;;5059756;28;20454;-35
2023/11/19 09:32:43;;;;;;;1.80;1.70;;;20.50;63.50;;;;;;5057455;28;20036;-34
2023/11/19 09:35:13;;;;;;;2.63;2.40;;;20.60;63.50;;;;;;5059553;28;20033;-34
2023/11/19 09:37:39;;;;;;;1.98;1.80;;;20.60;63.40;;;;;;5057861;28;20083;-34
2023/11/19 09:40:09;;;;;;;1.97;1.80;;;20.50;63.30;;;;;;5056440;28;20040;-34
2023/11/19 09:42:59;;;;;;;2.10;1.92;;;20.50;63.40;;;;;;5022347;28;20118;-34
2023/11/19 09:45:27;;;;;;;3.28;1.85;;;20.50;63.40;;;;;;4960975;28;20055;-35
2023/11/19 09:47:53;;;;;;;1.88;1.75;;;20.60;63.40;;;;;;4960634;28;20039;-35
2023/11/19 09:50:20;;;;;;;2.10;1.90;;;20.70;63.30;;;;;;4960990;29;20082;-35
2023/11/19 09:52:46;;;;;;;1.83;1.73;;;20.60;63.30;;;;;;4960651;28;20035;-35
2023/11/19 09:55:13;;;;;;;2.25;2.00;;;20.60;63.30;;;;;;4961518;28;20043;-35
2023/11/19 09:57:40;;;;;;;2.40;2.20;;;20.50;63.30;;;;;;4960810;28;20103;-35
2023/11/19 10:00:07;;;;;;;2.28;1.80;;;20.50;63.40;;;;;;4961415;28;20050;-35
2023/11/19 10:02:37;;;;;;;2.10;1.90;;;20.50;63.40;;;;;;4979419;28;20031;-35
2023/11/19 10:05:10;;;;;;;2.55;1.77;;;20.60;63.40;;;;;;4999692;28;20041;-35
2023/11/19 10:07:36;;;;;;;1.83;1.73;;;20.70;63.40;;;;;;5014614;28;20598;-35
2023/11/19 10:10:07;;;;;;;2.60;2.40;;;20.60;63.30;;;;;;4999965;28;20054;-35
2023/11/19 10:12:33;;;;;;;3.70;2.15;;;20.60;63.50;;;;;;4996045;28;20061;-35
2023/11/19 10:14:59;;;;;;;1.98;1.85;;;20.50;63.60;;;;;;5004744;28;20066;-35
2023/11/19 10:17:32;;;;;;;3.17;2.15;;;20.50;63.80;;;;;;5003775;28;20023;-35
2023/11/19 10:19:58;;;;;;;3.33;2.08;;;20.40;63.70;;;;;;5003469;28;20037;-35
2023/11/19 10:22:24;;;;;;;2.50;1.92;;;20.40;63.70;;;;;;5039355;28;20063;-35
2023/11/19 10:24:51;;;;;;;2.83;2.10;;;20.40;63.80;;;;;;5084608;28;20512;-35
2023/11/19 10:27:17;;;;;;;4.78;2.55;;;20.30;63.70;;;;;;5078068;28;20040;-35
2023/11/19 10:29:47;;;;;;;4.55;2.08;;;20.30;63.70;;;;;;5087302;28;20074;-35
2023/11/19 10:32:14;;;;;;;2.80;2.17;;;20.30;63.70;;;;;;5084446;28;20020;-34
2023/11/19 10:34:42;;;;;;;2.92;2.60;;;20.20;63.60;;;;;;5083934;28;20062;-34
2023/11/19 10:37:08;;;;;;;5.53;2.67;;;20.20;63.60;;;;;;5085288;28;20428;-35
2023/11/19 10:39:56;;;;;;;3.60;2.70;;;20.20;63.60;;;;;;5088392;28;20032;-35
2023/11/19 10:42:22;;;;;;;3.00;2.47;;;20.20;63.60;;;;;;5079895;28;20032;-35
2023/11/19 10:44:48;;;;;;;2.47;2.25;;;20.10;63.60;;;;;;5089081;28;20028;-35
2023/11/19 10:47:17;;;;;;;2.60;2.40;;;20.10;63.60;;;;;;5084846;28;20032;-35
2023/11/19 10:49:43;;;;;;;2.60;2.40;;;20.10;63.60;;;;;;5083588;28;20436;-35
2023/11/19 10:52:09;;;;;;;3.30;2.60;;;20.00;63.50;;;;;;5079314;28;20025;-35
2023/11/19 10:54:35;;;;;;;4.70;2.83;;;20.00;63.50;;;;;;5081306;28;20110;-36
2023/11/19 10:57:02;;;;;;;2.75;2.55;;;20.00;63.50;;;;;;5072032;28;20025;-35
2023/11/19 10:59:34;;;;;;;3.38;2.85;;;19.90;63.50;;;;;;5080151;28;20036;-35
2023/11/19 11:02:05;;;;;;;4.35;2.72;;;19.90;63.50;;;;;;5070130;28;20479;-35
2023/11/19 11:04:31;;;;;;;3.10;2.80;;;19.90;63.50;;;;;;5083315;28;20036;-34
2023/11/19 11:06:58;;;;;;;3.00;2.70;;;19.90;63.50;;;;;;5081326;28;20500;-35
2023/11/19 11:09:26;;;;;;;3.05;2.75;;;19.80;63.50;;;;;;5082201;28;20058;-35
2023/11/19 11:11:52;;;;;;;3.58;3.28;;;19.80;63.60;;;;;;5084351;28;20020;-35
2023/11/19 11:14:19;;;;;;;3.33;2.97;;;19.70;63.40;;;;;;5086647;28;20100;-35
2023/11/19 11:16:46;;;;;;;3.05;2.78;;;19.70;63.50;;;;;;5083805;28;20036;-35
2023/11/19 11:19:15;;;;;;;3.50;3.20;;;19.70;63.60;;;;;;5083528;28;20040;-36
2023/11/19 11:21:42;;;;;;;4.93;3.25;;;19.70;63.50;;;;;;5067161;28;20032;-35
2023/11/19 11:24:26;;;;;;;;;;;19.70;63.60;;;;;;5073779;28;20081;-35
2023/11/19 11:27:22;;;;;;;3.85;2.90;;;19.60;63.60;;;;;;5082435;28;19919;-35
2023/11/19 11:30:18;;;;;;;3.20;2.88;;;19.60;63.60;;;;;;5083245;28;20084;-35
2023/11/19 11:33:06;;;;;;;3.47;3.10;;;19.50;63.60;;;;;;5071905;28;20505;-35
2023/11/19 11:35:53;;;;;;;3.38;3.08;;;19.50;63.60;;;;;;5067199;28;20040;-35
2023/11/19 11:38:23;;;;;;;3.33;3.03;;;19.50;63.70;;;;;;5104340;28;20029;-35
2023/11/19 11:41:20;;;;;;;3.70;3.28;;;19.50;63.60;;;;;;5082817;28;20578;-36
2023/11/19 11:43:50;;;;;;;3.63;3.17;;;19.40;63.60;;;;;;5082809;28;20049;-35
2023/11/19 11:46:39;;;;;;;3.47;3.17;;;19.40;63.60;;;;;;5088482;28;20036;-35
2023/11/19 11:49:08;;;;;;;4.50;3.50;;;19.40;63.70;;;;;;5075616;28;20052;-36
2023/11/19 11:51:44;;;;;;;3.50;3.20;;;19.30;63.70;;;;;;5089247;28;20020;-35
2023/11/19 11:54:30;;;;;;;3.45;3.15;;;19.30;63.80;;;;;;5076224;28;20032;-35
2023/11/19 11:57:12;;;;;;;3.58;3.28;;;19.30;63.80;;;;;;5082807;28;20070;-35
2023/11/19 11:59:50;;;;;;;3.38;3.08;;;19.20;63.70;;;;;;5082949;28;20032;-35
2023/11/19 12:02:23;;;;;;;3.90;3.35;;;19.20;63.80;;;;;;5083218;28;20092;-34
2023/11/19 12:04:51;;;;;;;3.50;3.20;;;19.20;63.80;;;;;;5082548;28;20499;-35
2023/11/19 12:07:24;;;;;;;3.83;3.40;;;19.20;63.80;;;;;;5082908;28;20032;-35
2023/11/19 12:09:55;;;;;;;3.60;3.25;;;19.10;63.70;;;;;;5082300;28;20063;-34
2023/11/19 12:12:23;;;;;;;3.60;3.30;;;19.10;63.80;;;;;;5068270;28;20044;-34
2023/11/19 12:14:58;;;;;;;;;;;19.10;63.80;;;;;;5086621;28;20032;-34
2023/11/19 12:17:50;;;;;;;3.60;3.30;;;19.10;63.90;;;;;;5082898;28;19915;-35
2023/11/19 12:20:21;;;;;;;3.65;3.30;;;19.10;63.90;;;;;;5076857;28;20067;-35
2023/11/19 12:22:49;;;;;;;4.03;3.63;;;19.00;63.80;;;;;;5082274;28;20032;-34
2023/11/19 12:25:16;;;;;;;3.13;2.83;;;19.00;63.90;;;;;;5082524;28;20021;-35
2023/11/19 12:27:43;;;;;;;4.90;3.53;;;19.00;63.90;;;;;;5082626;28;20047;-35
2023/11/19 12:30:10;;;;;;;4.30;3.90;;;19.00;63.90;;;;;;5082460;28;20601;-35
2023/11/19 12:32:42;;;;;;;4.47;3.53;;;18.90;63.90;;;;;;5081286;28;20028;-34
2023/11/19 12:35:12;;;;;;;3.80;3.50;;;18.90;63.90;;;;;;5075778;28;20077;-35
2023/11/19 12:37:48;;;;;;;3.58;3.20;;;18.90;63.90;;;;;;5075221;28;20453;-35
2023/11/19 12:40:19;;;;;;;3.75;3.45;;;18.80;64.00;;;;;;5076260;28;20024;-35
2023/11/19 12:42:49;;;;;;;3.90;3.50;;;18.80;64.00;;;;;;5080784;28;20068;-35
2023/11/19 12:45:16;;;;;;;4.97;3.75;;;18.80;64.00;;;;;;5086988;28;20046;-35
2023/11/19 12:47:42;;;;;;;4.00;3.60;;;18.80;64.20;;;;;;5077068;28;20019;-35
2023/11/19 12:50:09;;;;;;;3.85;3.42;;;18.80;64.10;;;;;;5075650;28;20036;-35
2023/11/19 12:52:38;;;;;;;3.92;3.63;;;18.70;64.00;;;;;;5079884;28;20080;-35